KMLJ

Baldwin County Airport

Milledgeville, Georgia, USA
METAR KMLJ 191655Z AUTO 18007KT 150V220 10SM OVC007 17/16 A2991 RMK AO2
Observed Flight Rules
Jan-19 @ 16:55 UTC (8 minutes ago) Instrument Flight Rules
Wind Visibility Clouds
180° at 7 knots 10 miles
  • Overcast at 700' AGL
Temperatures Readings
Current 17°C / 63°F
Dewpoint 16°C / 61°F
Humidity 94%
Altimeter 29.91" Hg
Pressure 1012.92 hPa
Elevation 117
METAR KMLJ 191655Z AUTO 18007KT 150V220 10SM OVC007 17/16 A2991 RMK AO2
Observed Flight Rules
Jan-19 @ 16:55 UTC
(8 minutes ago)
IFR
Wind Visibility
180° at 7 knots 10 miles
Clouds
  • Overcast at 700' AGL
Temperature Dewpoint
17°C / 63°F 16°C / 61°F
Humidity Altimeter Pressure
94% 29.91" Hg 1012.92 hPa